createdAt,value
2017-04-03T00:00:30.701Z,41.70
2017-04-03T00:01:35.077Z,44.40
2017-04-03T00:02:38.901Z,41.90
2017-04-03T00:03:42.687Z,40.90
2017-04-03T00:04:46.667Z,42.20
2017-04-03T00:05:50.574Z,43.50
2017-04-03T00:06:54.425Z,42.90
2017-04-03T00:07:58.214Z,44.00
2017-04-03T00:09:02.135Z,44.00
2017-04-03T00:10:05.920Z,42.20
2017-04-03T00:11:09.682Z,44.60
2017-04-03T00:12:13.310Z,42.70
2017-04-03T00:13:17.302Z,42.30
2017-04-03T00:14:20.954Z,41.60
2017-04-03T00:15:25.403Z,40.50
2017-04-03T00:16:29.531Z,41.80
2017-04-03T00:17:32.776Z,40.50
2017-04-03T00:18:37.540Z,39.90
2017-04-03T00:19:41.260Z,40.50
2017-04-03T00:20:45.265Z,39.50
2017-04-03T00:21:49.904Z,40.90
2017-04-03T00:22:54.010Z,39.30
2017-04-03T00:23:57.916Z,39.90
2017-04-03T00:25:01.793Z,39.40
2017-04-03T00:26:05.457Z,41.60
2017-04-03T00:27:09.910Z,43.00
2017-04-03T00:28:13.877Z,41.10
2017-04-03T00:29:17.396Z,41.30
2017-04-03T00:30:21.344Z,42.30
2017-04-03T00:31:24.491Z,41.60
2017-04-03T00:32:28.280Z,43.50
2017-04-03T00:33:32.174Z,43.00
2017-04-03T00:34:35.926Z,43.60
2017-04-03T00:35:39.748Z,44.30
2017-04-03T00:36:43.757Z,43.20
2017-04-03T00:37:47.548Z,43.90
2017-04-03T00:38:51.443Z,44.20
2017-04-03T00:39:55.165Z,43.20
2017-04-03T00:40:59.168Z,43.50
2017-04-03T00:42:02.989Z,44.30
2017-04-03T00:43:07.658Z,43.10
2017-04-03T00:44:11.350Z,44.20
2017-04-03T00:45:15.164Z,45.90
2017-04-03T00:46:18.940Z,44.80
2017-04-03T00:47:22.705Z,43.10
2017-04-03T00:48:28.057Z,42.40
2017-04-03T00:49:31.961Z,42.10
2017-04-03T00:50:35.759Z,44.20
2017-04-03T00:51:39.163Z,43.80
2017-04-03T00:52:42.914Z,42.90
2017-04-03T00:53:46.719Z,43.40
2017-04-03T00:54:50.343Z,44.00
2017-04-03T00:55:54.714Z,44.20
2017-04-03T00:56:58.597Z,43.30
2017-04-03T00:58:02.846Z,43.60
2017-04-03T00:59:06.624Z,43.00
2017-04-03T01:00:10.515Z,41.80
2017-04-03T01:01:14.128Z,43.20
2017-04-03T01:02:17.889Z,42.90
2017-04-03T01:03:21.735Z,43.20
2017-04-03T01:04:25.876Z,42.90
2017-04-03T01:05:29.966Z,42.40
2017-04-03T01:06:34.491Z,44.70
2017-04-03T01:07:37.836Z,42.90
2017-04-03T01:08:41.452Z,42.70
2017-04-03T01:09:45.136Z,41.70
2017-04-03T01:10:49.016Z,42.10
2017-04-03T01:11:58.653Z,43.70
2017-04-03T01:13:03.000Z,42.60
2017-04-03T01:14:07.700Z,43.50
2017-04-03T01:16:24.482Z,42.20
2017-04-03T01:17:28.620Z,43.30
2017-04-03T01:18:32.679Z,42.80
2017-04-03T01:19:36.480Z,42.60
2017-04-03T01:20:40.242Z,43.10
2017-04-03T01:21:44.081Z,44.50
2017-04-03T01:22:47.987Z,43.60
2017-04-03T01:23:51.957Z,43.50
2017-04-03T01:24:55.786Z,43.50
2017-04-03T01:26:00.468Z,43.80
2017-04-03T01:27:04.591Z,43.50
2017-04-03T01:28:08.113Z,44.30
2017-04-03T01:29:11.795Z,42.90
2017-04-03T01:30:15.646Z,44.40
2017-04-03T01:31:19.533Z,44.30
2017-04-03T01:32:23.284Z,43.70
2017-04-03T01:33:27.334Z,44.80
2017-04-03T01:34:31.265Z,45.50
2017-04-03T01:35:35.357Z,44.70
2017-04-03T01:36:39.044Z,44.90
2017-04-03T01:37:42.923Z,44.10
2017-04-03T01:38:46.470Z,44.40
2017-04-03T01:39:50.201Z,46.80
2017-04-03T01:40:54.064Z,44.30
2017-04-03T01:41:57.815Z,45.10
2017-04-03T01:43:01.712Z,44.60
2017-04-03T01:44:05.641Z,45.00
2017-04-03T01:45:09.496Z,45.20
2017-04-03T01:46:13.610Z,43.60
2017-04-03T01:47:17.544Z,44.40
2017-04-03T01:48:21.650Z,45.10
2017-04-03T01:49:26.981Z,44.50
2017-04-03T01:50:30.652Z,44.30
2017-04-03T01:51:34.523Z,44.50
2017-04-03T01:52:39.463Z,45.30
2017-04-03T01:53:43.131Z,44.80
2017-04-03T01:54:47.660Z,46.70
2017-04-03T01:55:51.363Z,45.10
2017-04-03T01:56:55.123Z,46.10
2017-04-03T01:57:59.126Z,45.80
2017-04-03T01:59:02.782Z,47.00
2017-04-03T02:00:06.472Z,45.80
2017-04-03T02:01:10.196Z,46.60
2017-04-03T02:02:14.790Z,46.50
2017-04-03T02:03:18.535Z,46.80
2017-04-03T02:04:22.378Z,46.90
2017-04-03T02:05:26.322Z,47.80
2017-04-03T02:06:30.327Z,47.80
2017-04-03T02:07:34.318Z,47.70
2017-04-03T02:08:38.259Z,48.70
2017-04-03T02:09:42.124Z,48.40
2017-04-03T02:10:45.853Z,49.30
2017-04-03T02:11:50.436Z,48.80
2017-04-03T02:12:53.769Z,49.00
2017-04-03T02:13:57.199Z,49.00
2017-04-03T02:15:00.899Z,48.30
2017-04-03T02:16:04.745Z,48.90
2017-04-03T02:17:09.463Z,49.90
2017-04-03T02:18:13.473Z,48.90
2017-04-03T02:19:16.920Z,49.20
2017-04-03T02:20:20.361Z,50.20
2017-04-03T02:21:23.880Z,48.50
2017-04-03T02:22:27.789Z,50.10
2017-04-03T02:23:31.647Z,49.70
2017-04-03T02:24:35.492Z,49.10
2017-04-03T02:25:39.148Z,48.90
2017-04-03T02:26:43.154Z,49.90
2017-04-03T02:27:47.117Z,50.10
2017-04-03T02:28:50.551Z,50.10
2017-04-03T02:29:54.395Z,50.00
2017-04-03T02:32:44.342Z,49.80
2017-04-03T02:33:48.527Z,50.40
2017-04-03T02:34:52.457Z,49.10
2017-04-03T02:35:56.201Z,49.70
2017-04-03T02:36:59.985Z,50.00
2017-04-03T02:38:03.838Z,50.40
2017-04-03T02:39:07.719Z,50.30
2017-04-03T02:40:15.984Z,49.90
2017-04-03T02:41:19.906Z,50.50
2017-04-03T02:42:24.358Z,50.80
2017-04-03T02:43:28.329Z,50.70
2017-04-03T02:45:35.724Z,49.60
2017-04-03T02:46:40.257Z,50.70
2017-04-03T02:47:43.945Z,50.80
2017-04-03T02:48:48.785Z,51.80
2017-04-03T02:49:52.564Z,50.90
2017-04-03T02:50:56.633Z,51.30
2017-04-03T02:52:00.744Z,51.80
2017-04-03T02:53:05.177Z,50.50
2017-04-03T02:54:08.821Z,50.80
2017-04-03T02:55:12.691Z,51.70
2017-04-03T02:56:16.273Z,51.60
2017-04-03T02:57:20.374Z,51.00
2017-04-03T02:58:24.322Z,52.10
2017-04-03T02:59:29.083Z,51.20
2017-04-03T03:00:33.153Z,53.00
2017-04-03T03:01:36.893Z,51.30
2017-04-03T03:02:40.908Z,51.10
2017-04-03T03:03:45.545Z,50.70
2017-04-03T03:04:49.533Z,51.90
2017-04-03T03:05:53.300Z,51.00
2017-04-03T03:06:57.105Z,52.60
2017-04-03T03:08:01.048Z,52.20
2017-04-03T03:09:06.234Z,52.40
2017-04-03T03:10:10.074Z,52.10
2017-04-03T03:11:14.815Z,52.60
2017-04-03T03:12:18.950Z,53.00
2017-04-03T03:13:23.168Z,51.70
2017-04-03T03:14:26.817Z,51.80
2017-04-03T03:15:30.538Z,50.70
2017-04-03T03:16:34.970Z,51.30
2017-04-03T03:17:38.885Z,51.10
2017-04-03T03:18:43.599Z,51.20
2017-04-03T03:19:46.688Z,51.70
2017-04-03T03:20:50.317Z,51.60
2017-04-03T03:21:54.089Z,51.10
2017-04-03T03:22:58.446Z,51.40
2017-04-03T03:24:02.431Z,51.20
2017-04-03T03:25:05.547Z,51.10
2017-04-03T03:26:09.747Z,51.20
2017-04-03T03:27:14.248Z,51.30
2017-04-03T03:28:18.633Z,50.60
2017-04-03T03:29:22.671Z,50.80
2017-04-03T03:30:26.219Z,51.50
2017-04-03T03:31:30.101Z,50.50
2017-04-03T03:32:33.898Z,50.20
2017-04-03T03:33:37.623Z,50.60
2017-04-03T03:34:41.364Z,51.80
2017-04-03T03:35:46.409Z,52.20
2017-04-03T03:36:50.381Z,51.20
2017-04-03T03:37:53.730Z,51.30
2017-04-03T03:38:57.829Z,53.10
2017-04-03T03:40:01.723Z,52.10
2017-04-03T03:41:05.803Z,53.10
2017-04-03T03:42:09.885Z,52.10
2017-04-03T03:43:13.843Z,52.00
2017-04-03T03:44:17.671Z,51.40
2017-04-03T03:45:22.537Z,51.70
2017-04-03T03:46:26.458Z,51.70
2017-04-03T03:47:30.493Z,51.80
2017-04-03T03:48:35.013Z,51.30
2017-04-03T03:49:39.900Z,51.30
2017-04-03T03:50:43.320Z,52.40
2017-04-03T03:51:47.301Z,53.10
2017-04-03T03:52:51.586Z,52.60
2017-04-03T03:53:55.264Z,53.60
2017-04-03T03:54:59.217Z,53.50
2017-04-03T03:56:07.604Z,53.00
2017-04-03T03:57:16.612Z,53.50
2017-04-03T03:58:24.690Z,54.40
2017-04-03T03:59:33.796Z,54.00
2017-04-03T04:00:37.503Z,54.60
2017-04-03T04:01:42.413Z,53.50
2017-04-03T04:02:46.803Z,53.30
2017-04-03T04:03:50.529Z,54.00
2017-04-03T04:04:53.865Z,54.10
2017-04-03T04:05:57.691Z,55.60
2017-04-03T04:07:01.538Z,55.50
2017-04-03T04:08:05.309Z,56.70
2017-04-03T04:09:09.043Z,56.20
2017-04-03T04:10:13.521Z,57.10
2017-04-03T04:11:16.835Z,56.00
2017-04-03T04:12:21.200Z,55.80
2017-04-03T04:13:25.188Z,56.10
2017-04-03T04:14:30.100Z,55.60
2017-04-03T04:15:33.849Z,55.60
2017-04-03T04:16:37.742Z,55.40
2017-04-03T04:17:41.343Z,55.60
2017-04-03T04:18:45.277Z,56.70
2017-04-03T04:19:49.077Z,56.20
2017-04-03T04:20:52.618Z,56.30
2017-04-03T04:21:57.106Z,59.10
2017-04-03T04:23:00.776Z,58.40
2017-04-03T04:24:04.543Z,57.90
2017-04-03T04:25:08.982Z,58.60
2017-04-03T04:26:12.906Z,58.30
2017-04-03T04:28:20.158Z,58.40
2017-04-03T04:29:23.857Z,58.30
2017-04-03T04:30:27.665Z,58.40
2017-04-03T04:31:31.767Z,57.80
2017-04-03T04:32:35.597Z,57.90
2017-04-03T04:33:39.843Z,59.30
2017-04-03T04:34:43.450Z,58.60
2017-04-03T04:35:47.248Z,58.70
2017-04-03T04:36:50.874Z,59.30
2017-04-03T04:37:53.977Z,59.00
2017-04-03T04:38:58.618Z,59.50
2017-04-03T04:40:03.238Z,59.80
2017-04-03T04:41:07.244Z,60.80
2017-04-03T04:42:10.880Z,60.10
2017-04-03T04:43:14.438Z,60.10
2017-04-03T04:44:18.417Z,59.90
2017-04-03T04:45:28.645Z,59.90
2017-04-03T04:46:32.276Z,59.60
2017-04-03T04:47:36.217Z,59.70
2017-04-03T04:48:39.605Z,60.10
2017-04-03T04:49:44.645Z,60.10
2017-04-03T04:50:48.406Z,60.60
2017-04-03T04:51:52.203Z,60.80
2017-04-03T04:52:56.348Z,60.30
2017-04-03T04:54:00.061Z,60.80
2017-04-03T04:55:03.913Z,60.90
2017-04-03T04:56:07.714Z,61.50
2017-04-03T04:57:11.228Z,61.40
2017-04-03T04:58:15.944Z,61.20
2017-04-03T04:59:19.832Z,61.10
2017-04-03T05:00:23.729Z,61.10
2017-04-03T05:01:27.677Z,61.20
2017-04-03T05:02:31.756Z,61.00
2017-04-03T05:03:35.626Z,60.50
2017-04-03T05:04:40.252Z,60.60
2017-04-03T05:05:44.207Z,61.00
2017-04-03T05:06:48.039Z,61.20
2017-04-03T05:07:51.672Z,61.10
2017-04-03T05:08:55.498Z,61.20
2017-04-03T05:09:59.825Z,62.40
2017-04-03T05:11:03.713Z,63.10
2017-04-03T05:12:07.593Z,62.80
2017-04-03T05:13:11.764Z,63.00
2017-04-03T05:14:15.691Z,63.40
2017-04-03T05:15:19.299Z,64.00
2017-04-03T05:16:23.207Z,64.10
2017-04-03T05:17:26.880Z,64.30
2017-04-03T05:18:30.316Z,64.70
2017-04-03T05:19:33.779Z,64.60
2017-04-03T05:20:37.523Z,64.70
2017-04-03T05:21:41.310Z,64.40
2017-04-03T05:22:45.214Z,64.50
2017-04-03T05:23:48.749Z,64.50
2017-04-03T05:24:52.582Z,64.90
2017-04-03T05:25:57.094Z,65.60
2017-04-03T05:27:01.710Z,65.40
2017-04-03T05:28:05.388Z,66.90
2017-04-03T05:29:09.052Z,66.00
2017-04-03T05:30:12.903Z,67.40
2017-04-03T05:31:17.034Z,66.90
2017-04-03T05:32:20.747Z,66.40
2017-04-03T05:33:24.599Z,66.40
2017-04-03T05:34:28.725Z,66.30
2017-04-03T05:35:32.600Z,66.50
2017-04-03T05:36:36.423Z,66.60
2017-04-03T05:37:40.165Z,66.60
2017-04-03T05:38:43.701Z,66.80
2017-04-03T05:39:47.720Z,66.90
2017-04-03T05:40:51.257Z,67.00
2017-04-03T05:41:54.686Z,66.80
2017-04-03T05:42:58.385Z,66.90
2017-04-03T05:44:02.194Z,66.90
2017-04-03T05:45:05.742Z,66.90
2017-04-03T05:46:09.481Z,66.70
2017-04-03T05:47:13.302Z,66.50
2017-04-03T05:48:16.900Z,66.40
2017-04-03T05:49:20.723Z,67.10
2017-04-03T05:50:25.715Z,67.20
2017-04-03T05:51:29.526Z,67.80
2017-04-03T05:52:34.083Z,67.70
2017-04-03T05:53:38.206Z,67.90
2017-04-03T05:54:42.235Z,67.90
2017-04-03T05:55:46.093Z,68.00
2017-04-03T05:56:50.074Z,68.50
2017-04-03T05:57:53.989Z,68.60
2017-04-03T05:58:57.781Z,68.30
2017-04-03T06:00:01.625Z,68.40
2017-04-03T06:01:05.708Z,69.30
2017-04-03T06:02:09.354Z,69.70
2017-04-03T06:03:13.318Z,69.30
2017-04-03T06:04:16.617Z,69.10
2017-04-03T06:05:20.247Z,68.90
2017-04-03T06:06:24.250Z,68.90
2017-04-03T06:07:28.117Z,69.10
2017-04-03T06:08:32.610Z,69.10
2017-04-03T06:09:36.464Z,69.40
2017-04-03T06:10:40.529Z,69.60
2017-04-03T06:11:44.278Z,69.70
2017-04-03T06:12:47.882Z,70.70
2017-04-03T06:13:51.835Z,70.30
2017-04-03T06:14:55.945Z,70.30
2017-04-03T06:15:59.725Z,70.10
2017-04-03T06:17:03.332Z,70.90
2017-04-03T06:18:07.339Z,70.50
2017-04-03T06:19:11.130Z,70.90
2017-04-03T06:20:14.758Z,70.40
2017-04-03T06:21:18.503Z,70.70
2017-04-03T06:22:22.428Z,71.10
2017-04-03T06:23:26.455Z,70.80
2017-04-03T06:24:31.076Z,71.10
2017-04-03T06:25:35.841Z,71.40
2017-04-03T06:26:39.285Z,71.10
2017-04-03T06:27:42.872Z,70.70
2017-04-03T06:28:46.576Z,70.40
2017-04-03T06:29:50.755Z,71.30
2017-04-03T06:30:54.688Z,70.50
2017-04-03T06:31:58.680Z,70.70
2017-04-03T06:33:02.581Z,70.40
2017-04-03T06:34:06.588Z,70.90
2017-04-03T06:35:10.460Z,70.30
2017-04-03T06:36:14.377Z,70.00
2017-04-03T06:37:19.010Z,70.10
2017-04-03T06:38:23.001Z,69.80
2017-04-03T06:39:27.010Z,70.00
2017-04-03T06:40:30.698Z,70.00
2017-04-03T06:41:34.590Z,69.60
2017-04-03T06:42:38.385Z,69.80
2017-04-03T06:43:42.949Z,70.20
2017-04-03T06:44:46.621Z,69.90
2017-04-03T06:45:50.609Z,70.60
2017-04-03T06:46:54.599Z,69.80
2017-04-03T06:47:58.275Z,70.20
2017-04-03T06:49:01.938Z,70.60
2017-04-03T06:50:05.934Z,70.30
2017-04-03T06:51:11.240Z,71.20
2017-04-03T06:52:15.188Z,71.10
2017-04-03T06:53:18.607Z,71.20
2017-04-03T06:54:22.743Z,71.30
2017-04-03T06:55:26.665Z,71.70
2017-04-03T06:56:31.112Z,71.80
2017-04-03T06:57:34.799Z,71.50
2017-04-03T06:58:39.364Z,72.30
2017-04-03T06:59:43.117Z,72.10
2017-04-03T07:00:47.791Z,73.00
2017-04-03T07:01:51.464Z,73.30
2017-04-03T07:02:55.310Z,74.30
2017-04-03T07:03:59.125Z,74.30
2017-04-03T07:05:02.639Z,75.60
2017-04-03T07:06:05.998Z,74.70
2017-04-03T07:07:09.750Z,74.70
2017-04-03T07:08:13.589Z,74.50
2017-04-03T07:09:17.100Z,74.80
2017-04-03T07:10:20.912Z,75.70
2017-04-03T07:11:24.307Z,75.40
2017-04-03T07:12:28.182Z,74.40
2017-04-03T07:13:32.924Z,75.20
2017-04-03T07:14:36.779Z,74.80
2017-04-03T07:15:40.458Z,75.50
2017-04-03T07:16:44.703Z,75.40
2017-04-03T07:17:48.766Z,75.20
2017-04-03T07:18:52.681Z,75.40
2017-04-03T07:19:56.401Z,75.30
2017-04-03T07:21:00.318Z,75.90
2017-04-03T07:22:04.929Z,76.10
2017-04-03T07:23:08.399Z,76.60
2017-04-03T07:24:12.068Z,77.00
2017-04-03T07:25:15.725Z,76.20
2017-04-03T07:26:19.349Z,76.20
2017-04-03T07:27:23.087Z,75.80
2017-04-03T07:28:26.528Z,76.80
2017-04-03T07:29:30.971Z,76.00
2017-04-03T07:30:34.424Z,76.10
2017-04-03T07:31:37.880Z,75.90
2017-04-03T07:32:41.784Z,76.10
2017-04-03T07:33:45.500Z,76.10
2017-04-03T07:34:49.819Z,75.70
2017-04-03T07:35:53.728Z,74.90
2017-04-03T07:36:57.379Z,75.30
2017-04-03T07:38:00.800Z,75.30
2017-04-03T07:39:04.483Z,77.20
2017-04-03T07:40:08.518Z,77.50
2017-04-03T07:41:12.089Z,78.20
2017-04-03T07:42:15.945Z,78.00
2017-04-03T07:43:19.825Z,79.50
2017-04-03T07:44:23.594Z,79.30
2017-04-03T07:45:27.626Z,81.20
2017-04-03T07:46:31.236Z,81.00
2017-04-03T07:47:34.965Z,80.90
2017-04-03T07:48:38.760Z,80.70
2017-04-03T07:49:42.632Z,80.60
2017-04-03T07:50:46.333Z,81.30
2017-04-03T07:51:50.231Z,80.30
2017-04-03T07:52:54.722Z,81.50
2017-04-03T07:55:01.466Z,82.50
2017-04-03T07:56:06.170Z,82.90
2017-04-03T07:57:09.742Z,82.50
2017-04-03T07:58:13.532Z,82.60
2017-04-03T07:59:16.983Z,82.90
2017-04-03T08:00:20.918Z,82.30
2017-04-03T08:01:24.294Z,82.90
2017-04-03T08:02:28.225Z,80.90
2017-04-03T08:03:32.135Z,80.00
2017-04-03T08:04:36.763Z,80.70
2017-04-03T08:05:40.535Z,82.10
2017-04-03T08:06:44.190Z,82.60
2017-04-03T08:07:48.023Z,82.60
2017-04-03T08:08:51.613Z,82.40
2017-04-03T08:09:56.179Z,83.00
2017-04-03T08:10:59.813Z,82.50
2017-04-03T08:12:03.791Z,82.00
2017-04-03T08:13:07.686Z,82.80
2017-04-03T08:14:11.536Z,82.40
2017-04-03T08:15:15.270Z,83.20
2017-04-03T08:16:18.922Z,83.60
2017-04-03T08:17:22.636Z,84.40
2017-04-03T08:18:26.601Z,84.90
2017-04-03T08:19:30.361Z,85.40
2017-04-03T08:20:34.125Z,85.80
2017-04-03T08:21:37.735Z,86.10
2017-04-03T08:22:41.753Z,85.90
2017-04-03T08:23:45.678Z,85.20
2017-04-03T08:24:49.382Z,85.30
2017-04-03T08:25:52.769Z,85.40
2017-04-03T08:26:56.544Z,85.50
2017-04-03T08:28:00.615Z,85.80
2017-04-03T08:29:04.361Z,85.10
2017-04-03T08:30:08.058Z,85.80
2017-04-03T08:31:11.633Z,86.20
2017-04-03T08:32:15.259Z,87.10
2017-04-03T08:33:18.970Z,87.90
2017-04-03T08:34:22.742Z,88.80
2017-04-03T08:35:27.306Z,89.20
2017-04-03T08:36:30.784Z,90.10
2017-04-03T08:37:34.215Z,90.30
2017-04-03T08:38:38.096Z,90.40
2017-04-03T08:39:41.562Z,90.60
2017-04-03T08:40:45.203Z,91.00
2017-04-03T08:41:48.692Z,91.70
2017-04-03T08:42:52.612Z,92.20
2017-04-03T08:43:56.401Z,92.50
2017-04-03T08:45:01.130Z,93.10
2017-04-03T08:46:04.704Z,93.30
2017-04-03T08:47:08.506Z,93.70
2017-04-03T08:48:13.186Z,94.10
2017-04-03T08:49:16.748Z,94.70
2017-04-03T08:50:20.312Z,94.60
2017-04-03T08:51:24.918Z,94.60
2017-04-03T08:52:30.897Z,94.50
2017-04-03T08:53:35.558Z,94.40
2017-04-03T08:54:39.308Z,94.20
2017-04-03T08:55:42.877Z,94.30
2017-04-03T08:56:46.767Z,94.40
2017-04-03T08:57:50.616Z,94.30
2017-04-03T08:58:54.450Z,94.20
2017-04-03T08:59:58.376Z,94.40
2017-04-03T09:01:02.106Z,94.60
2017-04-03T09:02:06.076Z,94.70
2017-04-03T09:03:10.145Z,94.80
2017-04-03T09:04:13.830Z,95.00
2017-04-03T09:05:17.361Z,95.10
2017-04-03T09:06:21.272Z,95.10
2017-04-03T09:08:28.924Z,95.00
2017-04-03T09:09:32.203Z,95.00
2017-04-03T09:10:35.731Z,95.30
2017-04-03T09:11:39.743Z,95.90
2017-04-03T09:12:43.274Z,96.40
2017-04-03T09:13:47.058Z,96.70
2017-04-03T09:14:51.731Z,96.90
2017-04-03T09:15:55.422Z,96.80
2017-04-03T09:17:00.204Z,96.80
2017-04-03T09:18:03.675Z,96.70
2017-04-03T09:19:07.344Z,96.50
2017-04-03T09:20:10.920Z,97.00
2017-04-03T09:21:14.819Z,96.90
2017-04-03T09:22:18.554Z,96.90
2017-04-03T09:23:22.207Z,97.30
2017-04-03T09:24:25.999Z,97.40
2017-04-03T09:25:29.947Z,97.10
2017-04-03T09:26:34.329Z,95.80
2017-04-03T09:27:38.089Z,95.00
2017-04-03T09:28:41.756Z,94.00
2017-04-03T09:29:45.685Z,94.70
2017-04-03T09:30:49.509Z,93.20
2017-04-03T09:31:53.301Z,92.80
2017-04-03T09:32:57.120Z,93.40
2017-04-03T09:34:00.879Z,93.90
2017-04-03T09:35:05.194Z,93.60
2017-04-03T09:36:08.792Z,93.80
2017-04-03T09:37:12.743Z,93.60
2017-04-03T09:39:19.645Z,94.10
2017-04-03T09:40:23.595Z,94.40
2017-04-03T09:41:26.895Z,94.50
2017-04-03T09:42:30.749Z,93.70
2017-04-03T09:43:34.402Z,93.60
2017-04-03T09:44:38.579Z,93.60
2017-04-03T09:46:55.246Z,92.50
2017-04-03T09:47:59.164Z,92.70
2017-04-03T09:49:02.967Z,92.70
2017-04-03T09:50:06.776Z,92.30
2017-04-03T09:51:10.377Z,90.20
2017-04-03T09:52:14.148Z,87.70
2017-04-03T09:53:19.336Z,88.10
2017-04-03T09:54:22.892Z,90.30
2017-04-03T09:55:26.841Z,91.10
2017-04-03T09:56:30.619Z,91.80
2017-04-03T09:57:35.098Z,92.50
2017-04-03T09:58:38.667Z,92.60
2017-04-03T09:59:43.082Z,92.40
2017-04-03T10:00:46.881Z,92.10
2017-04-03T10:01:51.367Z,92.00
2017-04-03T10:02:54.883Z,91.20
2017-04-03T10:03:58.649Z,90.90
2017-04-03T10:05:02.219Z,90.60
2017-04-03T10:06:06.214Z,89.50
2017-04-03T10:07:10.214Z,88.00
2017-04-03T10:08:14.933Z,86.40
2017-04-03T10:09:19.062Z,85.10
2017-04-03T10:10:22.707Z,84.60
2017-04-03T10:11:26.514Z,83.10
2017-04-03T10:12:30.619Z,83.30
2017-04-03T10:13:34.844Z,85.00
2017-04-03T10:14:39.758Z,87.40
2017-04-03T10:15:43.618Z,89.40
2017-04-03T10:16:48.112Z,89.70
2017-04-03T10:17:52.247Z,90.60
2017-04-03T10:18:55.863Z,91.00
2017-04-03T10:19:59.785Z,91.60
2017-04-03T10:21:03.819Z,91.60
2017-04-03T10:22:07.536Z,90.90
2017-04-03T10:23:12.049Z,90.80
2017-04-03T10:24:16.839Z,89.80
2017-04-03T10:25:21.184Z,88.30
2017-04-03T10:26:25.030Z,86.30
2017-04-03T10:27:29.186Z,84.80
2017-04-03T10:28:32.986Z,84.40
2017-04-03T10:29:36.703Z,84.40
2017-04-03T10:30:40.113Z,81.80
2017-04-03T10:31:44.023Z,80.80
2017-04-03T10:32:47.942Z,80.70
2017-04-03T10:33:51.856Z,79.70
2017-04-03T10:34:55.846Z,80.30
2017-04-03T10:37:03.464Z,79.20
2017-04-03T10:38:07.520Z,79.30
2017-04-03T10:39:11.151Z,78.00
2017-04-03T10:40:15.556Z,77.50
2017-04-03T10:41:19.705Z,78.20
2017-04-03T10:42:23.574Z,77.90
2017-04-03T10:43:27.768Z,77.80
2017-04-03T10:44:31.886Z,77.40
2017-04-03T10:45:35.533Z,78.10
2017-04-03T10:46:39.386Z,78.00
2017-04-03T10:47:43.058Z,78.10
2017-04-03T10:48:46.825Z,80.00
2017-04-03T10:49:50.624Z,78.80
2017-04-03T10:50:54.569Z,78.50
2017-04-03T10:51:58.500Z,77.70
2017-04-03T10:53:01.867Z,78.50
2017-04-03T10:54:07.375Z,78.10
2017-04-03T10:55:10.858Z,78.80
2017-04-03T10:56:14.366Z,78.80
2017-04-03T10:57:18.124Z,78.10
2017-04-03T10:58:22.148Z,77.60
2017-04-03T10:59:25.972Z,78.50
2017-04-03T11:00:29.822Z,79.00
2017-04-03T11:01:34.746Z,82.40
2017-04-03T11:02:38.508Z,82.70
2017-04-03T11:03:42.316Z,82.50
2017-04-03T11:04:45.857Z,84.10
2017-04-03T11:05:49.856Z,84.60
2017-04-03T11:06:53.629Z,83.30
2017-04-03T11:07:57.660Z,85.40
2017-04-03T11:09:01.428Z,86.80
2017-04-03T11:10:05.247Z,87.50
2017-04-03T11:11:09.143Z,87.50
2017-04-03T11:12:12.704Z,87.40
2017-04-03T11:13:16.615Z,87.70
2017-04-03T11:14:20.745Z,86.20
2017-04-03T11:15:24.081Z,83.10
2017-04-03T11:16:28.689Z,83.40
2017-04-03T11:17:32.421Z,84.10
2017-04-03T11:18:36.859Z,84.30
2017-04-03T11:19:40.559Z,84.40
2017-04-03T11:20:44.115Z,84.40
2017-04-03T11:21:48.640Z,84.10
2017-04-03T11:22:52.353Z,83.70
2017-04-03T11:23:56.119Z,82.30
2017-04-03T11:25:00.233Z,81.30
2017-04-03T11:26:04.025Z,81.20
2017-04-03T11:27:07.960Z,77.70
2017-04-03T11:28:12.071Z,77.40
2017-04-03T11:29:16.371Z,77.60
2017-04-03T11:30:19.906Z,77.50
2017-04-03T11:31:24.803Z,78.30
2017-04-03T11:32:28.739Z,81.20
2017-04-03T11:33:32.652Z,81.30
2017-04-03T11:34:36.625Z,81.30
2017-04-03T11:35:40.357Z,81.50
2017-04-03T11:36:44.226Z,81.20
2017-04-03T11:37:47.699Z,78.70
2017-04-03T11:38:51.845Z,81.70
2017-04-03T11:39:55.532Z,82.70
2017-04-03T11:40:59.145Z,84.90
2017-04-03T11:42:03.214Z,86.60
2017-04-03T11:43:07.203Z,88.00
2017-04-03T11:44:12.034Z,88.90
2017-04-03T11:45:20.363Z,89.20
2017-04-03T11:46:28.537Z,88.70
2017-04-03T11:47:36.897Z,88.60
2017-04-03T11:48:45.432Z,87.20
2017-04-03T11:50:53.366Z,85.80
2017-04-03T11:52:01.542Z,84.50
2017-04-03T11:53:09.754Z,83.00
2017-04-03T11:54:14.749Z,83.10
2017-04-03T11:56:15.854Z,84.00
2017-04-03T11:57:19.609Z,84.60
2017-04-03T11:58:24.620Z,84.20
2017-04-03T11:59:28.674Z,84.20
2017-04-03T12:00:32.315Z,83.90
2017-04-03T12:01:35.780Z,83.60
2017-04-03T12:02:39.710Z,82.80
2017-04-03T12:03:43.254Z,82.40
2017-04-03T12:04:47.250Z,81.90
2017-04-03T12:05:51.575Z,82.50
2017-04-03T12:06:55.463Z,82.90
2017-04-03T12:07:59.148Z,83.10
2017-04-03T12:09:02.642Z,82.10
2017-04-03T12:10:06.951Z,82.70
2017-04-03T12:11:10.640Z,81.70
2017-04-03T12:12:14.995Z,81.60
2017-04-03T12:13:18.686Z,82.40
2017-04-03T12:14:22.531Z,84.30
2017-04-03T12:15:26.334Z,86.10
2017-04-03T12:16:30.211Z,86.50
2017-04-03T12:17:33.972Z,87.20
2017-04-03T12:18:37.593Z,87.00
2017-04-03T12:19:41.292Z,88.10
2017-04-03T12:20:46.050Z,90.10
2017-04-03T12:21:52.945Z,90.30
2017-04-03T12:22:56.738Z,90.30
2017-04-03T12:24:00.477Z,90.60
2017-04-03T12:25:04.312Z,91.20
2017-04-03T12:26:07.776Z,91.90
2017-04-03T12:27:12.442Z,92.30
2017-04-03T12:28:15.307Z,93.30
2017-04-03T12:29:17.700Z,94.00
2017-04-03T12:30:19.987Z,94.20
2017-04-03T12:31:23.992Z,94.00
2017-04-03T12:32:27.624Z,93.80
2017-04-03T12:33:31.281Z,93.60
2017-04-03T12:34:35.173Z,93.70
2017-04-03T12:35:39.694Z,94.20
2017-04-03T12:36:43.555Z,94.20
2017-04-03T12:37:48.023Z,94.20
2017-04-03T12:38:52.082Z,94.20
2017-04-03T12:39:56.010Z,94.50
2017-04-03T12:40:59.916Z,94.80
2017-04-03T12:42:03.932Z,95.70
2017-04-03T12:43:07.463Z,96.20
2017-04-03T12:44:11.005Z,96.80
2017-04-03T12:45:14.773Z,97.10
2017-04-03T12:46:18.805Z,97.50
2017-04-03T12:47:22.809Z,98.10
2017-04-03T12:48:26.824Z,98.50
2017-04-03T12:49:30.883Z,98.80
2017-04-03T12:50:35.137Z,98.80
2017-04-03T12:51:39.020Z,98.70
2017-04-03T12:52:42.895Z,98.30
2017-04-03T12:53:46.746Z,98.60
2017-04-03T12:54:54.007Z,98.90
2017-04-03T12:55:58.007Z,98.90
2017-04-03T12:57:01.831Z,98.30
2017-04-03T12:58:06.103Z,98.90
2017-04-03T13:00:18.210Z,98.90
2017-04-03T13:01:24.224Z,99.00
2017-04-03T13:02:28.383Z,99.70
2017-04-03T13:03:31.967Z,99.90
2017-04-03T13:04:35.775Z,99.90
2017-04-03T13:05:39.603Z,99.90
2017-04-03T13:06:43.124Z,99.90
2017-04-03T13:07:48.074Z,99.80
2017-04-03T13:08:52.140Z,99.60
2017-04-03T13:09:56.226Z,98.70
2017-04-03T13:10:59.960Z,97.50
2017-04-03T13:12:04.075Z,96.10
2017-04-03T13:13:08.348Z,95.20
2017-04-03T13:14:12.344Z,94.90
2017-04-03T13:15:16.035Z,94.20
2017-04-03T13:16:19.920Z,93.90
2017-04-03T13:17:24.366Z,94.50
2017-04-03T13:18:28.131Z,95.30
2017-04-03T13:19:32.955Z,96.60
2017-04-03T13:20:36.767Z,97.20
2017-04-03T13:21:40.549Z,98.60
2017-04-03T13:22:44.871Z,99.10
2017-04-03T13:23:48.640Z,99.90
2017-04-03T13:24:53.117Z,99.90
2017-04-03T13:25:57.936Z,99.90
2017-04-03T13:27:02.840Z,99.90
2017-04-03T13:28:06.671Z,99.90
2017-04-03T13:29:10.612Z,99.90
2017-04-03T13:30:14.882Z,99.90
2017-04-03T13:31:18.727Z,99.90
2017-04-03T13:32:22.814Z,99.90
2017-04-03T13:33:27.617Z,99.90
2017-04-03T13:34:31.503Z,99.90
2017-04-03T13:35:35.216Z,99.90
2017-04-03T13:36:38.890Z,99.90
2017-04-03T13:37:42.860Z,99.90
2017-04-03T13:38:46.626Z,99.90
2017-04-03T13:39:50.154Z,99.90
2017-04-03T13:40:53.725Z,99.90
2017-04-03T13:41:58.211Z,99.90
2017-04-03T13:43:02.191Z,99.90
2017-04-03T13:44:06.225Z,99.90
2017-04-03T13:45:10.004Z,99.90
2017-04-03T13:46:13.793Z,99.90
2017-04-03T13:47:18.071Z,99.90
2017-04-03T13:48:22.340Z,99.20
2017-04-03T13:49:25.765Z,98.40
2017-04-03T13:50:29.477Z,97.90
2017-04-03T13:51:33.004Z,98.80
2017-04-03T13:52:36.877Z,99.90
2017-04-03T13:53:40.927Z,99.90
2017-04-03T13:54:44.601Z,99.90
2017-04-03T13:55:49.029Z,99.90
2017-04-03T13:56:52.891Z,99.90
2017-04-03T13:57:56.329Z,99.90